createdAt,value
2022-11-28T00:03:07.573Z,14.27
2022-11-28T00:08:09.632Z,16.05
2022-11-28T00:13:11.467Z,15.52
2022-11-28T00:18:13.118Z,14.88
2022-11-28T00:23:14.665Z,15.57
2022-11-28T00:28:16.258Z,16.35
2022-11-28T00:33:17.888Z,15.48
2022-11-28T00:38:19.469Z,16.10
2022-11-28T00:43:21.057Z,15.07
2022-11-28T00:48:23.306Z,15.73
2022-11-28T00:53:24.951Z,14.77
2022-11-28T00:58:26.555Z,13.38
2022-11-28T01:03:28.156Z,15.70
2022-11-28T01:08:30.211Z,15.43
2022-11-28T01:13:31.860Z,15.05
2022-11-28T01:18:33.442Z,14.88
2022-11-28T01:23:35.374Z,15.95
2022-11-28T01:28:36.959Z,15.70
2022-11-28T01:33:38.524Z,14.82
2022-11-28T01:38:41.221Z,14.50
2022-11-28T01:44:01.550Z,14.60
2022-11-28T01:49:13.316Z,14.38
2022-11-28T01:54:16.561Z,13.60
2022-11-28T01:59:20.476Z,15.50
2022-11-28T02:04:25.770Z,15.13
2022-11-28T02:09:27.368Z,14.02
2022-11-28T02:15:03.138Z,14.45
2022-11-28T02:20:38.082Z,14.95
2022-11-28T02:26:15.367Z,14.25
2022-11-28T02:31:36.178Z,14.60
2022-11-28T02:37:03.478Z,14.40
2022-11-28T02:42:15.166Z,14.27
2022-11-28T02:47:32.125Z,14.77
2022-11-28T02:52:39.249Z,14.68
2022-11-28T02:57:53.502Z,14.65
2022-11-28T03:03:25.485Z,13.30
2022-11-28T03:08:42.553Z,13.98
2022-11-28T03:13:59.673Z,14.65
2022-11-28T03:19:20.291Z,14.43
2022-11-28T03:24:24.991Z,13.95
2022-11-28T03:29:41.792Z,15.00
2022-11-28T03:34:47.602Z,15.70
2022-11-28T03:39:54.148Z,14.52
2022-11-28T03:45:05.923Z,14.52
2022-11-28T03:50:16.195Z,14.63
2022-11-28T03:55:24.817Z,13.52
2022-11-28T04:00:27.110Z,14.25
2022-11-28T04:05:49.445Z,14.80
2022-11-28T04:10:59.739Z,14.30
2022-11-28T04:16:11.580Z,14.68
2022-11-28T04:21:23.300Z,15.10
2022-11-28T04:26:32.207Z,13.63
2022-11-28T04:31:35.664Z,14.13
2022-11-28T04:36:41.061Z,14.18
2022-11-28T04:41:50.867Z,14.50
2022-11-28T04:46:55.781Z,13.75
2022-11-28T04:52:10.020Z,12.75
2022-11-28T04:57:21.704Z,13.38
2022-11-28T05:02:24.960Z,14.98
2022-11-28T05:07:26.674Z,13.35
2022-11-28T05:12:28.261Z,14.77
2022-11-28T05:17:30.177Z,12.40
2022-11-28T05:22:31.691Z,13.85
2022-11-28T05:27:33.300Z,12.70
2022-11-28T05:32:36.272Z,12.88
2022-11-28T05:37:38.159Z,12.40
2022-11-28T05:42:39.703Z,13.18
2022-11-28T05:47:41.301Z,12.88
2022-11-28T05:52:42.843Z,12.02
2022-11-28T05:57:44.361Z,13.07
2022-11-28T06:02:45.895Z,12.75
2022-11-28T06:07:47.534Z,12.57
2022-11-28T06:12:49.593Z,12.55
2022-11-28T06:17:51.130Z,12.70
2022-11-28T06:22:52.760Z,12.88
2022-11-28T06:27:54.305Z,13.55
2022-11-28T06:32:55.866Z,12.68
2022-11-28T06:37:57.542Z,12.60
2022-11-28T06:42:59.054Z,13.30
2022-11-28T06:48:01.479Z,11.52
2022-11-28T06:53:03.010Z,12.75
2022-11-28T06:58:04.563Z,12.10
2022-11-28T07:03:06.083Z,12.45
2022-11-28T07:08:07.723Z,12.00
2022-11-28T07:13:09.286Z,11.65
2022-11-28T07:18:10.793Z,12.25
2022-11-28T07:23:12.366Z,11.55
2022-11-28T07:28:13.903Z,11.73
2022-11-28T07:33:15.781Z,13.95
2022-11-28T07:38:17.315Z,16.80
2022-11-28T07:43:18.818Z,12.30
2022-11-28T07:48:20.378Z,11.75
2022-11-28T07:53:22.176Z,11.50
2022-11-28T07:58:23.819Z,11.45
2022-11-28T08:03:25.786Z,12.05
2022-11-28T08:08:31.117Z,11.48
2022-11-28T08:13:38.787Z,11.65
2022-11-28T08:18:41.607Z,12.10
2022-11-28T08:23:47.954Z,9.20
2022-11-28T08:40:25.994Z,11.95
2022-11-28T08:45:27.539Z,13.32
2022-11-28T08:50:29.198Z,13.27
2022-11-28T08:55:41.766Z,12.93
2022-11-28T09:01:25.907Z,12.77
2022-11-28T09:06:50.716Z,12.25
2022-11-28T09:11:53.406Z,12.40
2022-11-28T09:16:55.139Z,12.75
2022-11-28T09:21:58.089Z,12.50
2022-11-28T09:26:59.978Z,13.07
2022-11-28T09:32:01.576Z,11.60
2022-11-28T09:37:05.015Z,12.45
2022-11-28T09:42:17.578Z,11.73
2022-11-28T09:47:26.361Z,12.52
2022-11-28T09:52:45.810Z,12.23
2022-11-28T09:57:49.733Z,11.80
2022-11-28T10:03:11.921Z,12.65
2022-11-28T10:08:28.787Z,11.73
2022-11-28T10:14:08.949Z,12.15
2022-11-28T10:19:31.692Z,11.00
2022-11-28T10:24:48.361Z,10.77
2022-11-28T10:30:04.614Z,11.68
2022-11-28T10:35:13.784Z,11.77
2022-11-28T10:40:34.191Z,11.43
2022-11-28T10:46:04.211Z,11.02
2022-11-28T10:51:38.389Z,11.55
2022-11-28T10:56:45.955Z,12.13
2022-11-28T11:01:50.439Z,11.93
2022-11-28T11:07:16.428Z,12.18
2022-11-28T11:12:27.419Z,11.55
2022-11-28T11:17:36.581Z,12.40
2022-11-28T11:22:38.893Z,13.40
2022-11-28T11:27:49.850Z,12.25
2022-11-28T11:32:51.945Z,12.43
2022-11-28T11:37:55.511Z,12.35
2022-11-28T11:42:59.709Z,12.98
2022-11-28T11:48:03.890Z,12.23
2022-11-28T11:53:15.312Z,13.15
2022-11-28T11:58:25.510Z,13.15
2022-11-28T12:03:42.023Z,12.05
2022-11-28T12:08:51.071Z,13.35
2022-11-28T12:13:53.360Z,12.82
2022-11-28T12:18:57.983Z,14.32
2022-11-28T12:24:13.941Z,11.85
2022-11-28T12:29:40.274Z,12.27
2022-11-28T12:35:09.233Z,12.50
2022-11-28T12:40:38.216Z,12.45
2022-11-28T12:46:15.197Z,12.88
2022-11-28T12:51:49.321Z,11.50
2022-11-28T12:57:11.311Z,12.23
2022-11-28T13:02:55.785Z,10.93
2022-11-28T13:08:03.538Z,11.88
2022-11-28T13:13:17.851Z,11.75
2022-11-28T13:18:40.596Z,12.85
2022-11-28T13:23:56.201Z,12.57
2022-11-28T13:29:19.456Z,13.07
2022-11-28T13:34:21.892Z,11.38
2022-11-28T13:39:33.402Z,11.40
2022-11-28T13:44:50.076Z,11.48
2022-11-28T13:49:51.649Z,12.40
2022-11-28T13:54:56.416Z,12.07
2022-11-28T14:00:20.969Z,12.15
2022-11-28T14:05:38.023Z,11.30
2022-11-28T14:11:05.969Z,12.85
2022-11-28T14:16:17.830Z,11.43
2022-11-28T14:21:55.866Z,11.52
2022-11-28T14:27:00.869Z,12.95
2022-11-28T14:37:29.191Z,12.70
2022-11-28T14:48:16.982Z,14.38
2022-11-28T14:53:34.363Z,13.68
2022-11-28T14:58:36.159Z,12.90
2022-11-28T15:03:56.988Z,12.43
2022-11-28T15:09:14.201Z,13.27
2022-11-28T15:14:23.460Z,12.45
2022-11-28T15:19:30.887Z,13.25
2022-11-28T15:24:38.153Z,13.40
2022-11-28T15:29:39.705Z,12.93
2022-11-28T15:34:41.545Z,12.85
2022-11-28T15:39:46.766Z,14.10
2022-11-28T15:44:56.306Z,13.57
2022-11-28T15:50:11.456Z,12.93
2022-11-28T15:55:17.099Z,13.18
2022-11-28T16:00:21.859Z,13.15
2022-11-28T16:05:23.710Z,14.55
2022-11-28T16:10:31.863Z,16.35
2022-11-28T16:15:33.487Z,13.23
2022-11-28T16:20:37.078Z,18.30
2022-11-28T16:25:38.886Z,16.90
2022-11-28T16:30:48.056Z,18.30
2022-11-28T16:35:49.891Z,15.07
2022-11-28T16:40:59.001Z,16.75
2022-11-28T16:46:03.514Z,19.08
2022-11-28T16:51:11.106Z,15.13
2022-11-28T16:56:26.088Z,15.63
2022-11-28T17:01:29.194Z,14.88
2022-11-28T17:06:39.375Z,14.68
2022-11-28T17:11:44.829Z,13.65
2022-11-28T17:16:46.597Z,15.07
2022-11-28T17:21:51.734Z,16.38
2022-11-28T17:26:54.851Z,16.13
2022-11-28T17:31:58.821Z,16.27
2022-11-28T17:37:01.999Z,16.90
2022-11-28T17:42:04.562Z,16.55
2022-11-28T17:47:06.107Z,16.13
2022-11-28T17:52:09.456Z,15.68
2022-11-28T17:57:11.325Z,16.17
2022-11-28T18:02:13.426Z,26.75
2022-11-28T18:07:15.860Z,28.65
2022-11-28T18:12:17.503Z,25.10
2022-11-28T18:17:19.092Z,23.77
2022-11-28T18:22:20.699Z,18.40
2022-11-28T18:27:22.707Z,18.25
2022-11-28T18:32:24.548Z,19.20
2022-11-28T18:37:26.225Z,24.42
2022-11-28T18:42:27.808Z,18.50
2022-11-28T18:47:29.479Z,19.40
2022-11-28T18:52:32.971Z,16.98
2022-11-28T18:57:35.075Z,17.08
2022-11-28T19:02:36.767Z,19.25
2022-11-28T19:07:38.380Z,17.77
2022-11-28T19:12:41.075Z,17.63
2022-11-28T19:17:42.687Z,18.17
2022-11-28T19:22:44.283Z,17.42
2022-11-28T19:27:45.970Z,16.42
2022-11-28T19:32:47.974Z,17.98
2022-11-28T19:37:51.388Z,16.88
2022-11-28T19:42:52.986Z,16.20
2022-11-28T19:47:54.538Z,16.48
2022-11-28T19:52:56.232Z,16.90
2022-11-28T19:57:57.883Z,17.25
2022-11-28T20:02:59.542Z,16.58
2022-11-28T20:08:01.422Z,16.48
2022-11-28T20:13:03.332Z,16.60
2022-11-28T20:18:04.922Z,15.95
2022-11-28T20:23:06.771Z,16.60
2022-11-28T20:28:08.448Z,16.50
2022-11-28T20:33:10.043Z,16.50
2022-11-28T20:38:12.374Z,16.13
2022-11-28T20:43:13.948Z,15.32
2022-11-28T20:48:15.568Z,16.13
2022-11-28T20:53:19.892Z,17.48
2022-11-28T20:58:25.298Z,17.08
2022-11-28T21:03:27.079Z,17.13
2022-11-28T21:08:31.275Z,17.13
2022-11-28T21:13:33.146Z,17.42
2022-11-28T21:18:36.488Z,17.08
2022-11-28T21:23:38.698Z,17.17
2022-11-28T21:28:42.186Z,16.52
2022-11-28T21:33:48.059Z,16.50
2022-11-28T21:38:54.417Z,18.40
2022-11-28T21:43:56.703Z,16.88
2022-11-28T21:48:58.686Z,18.15
2022-11-28T21:54:00.264Z,18.23
2022-11-28T21:59:01.937Z,16.83
2022-11-28T22:04:04.510Z,17.15
2022-11-28T22:09:09.393Z,17.23
2022-11-28T22:14:12.234Z,17.20
2022-11-28T22:19:14.066Z,18.85
2022-11-28T22:24:17.723Z,17.83
2022-11-28T22:29:19.329Z,18.83
2022-11-28T22:34:21.093Z,18.63
2022-11-28T22:39:22.913Z,17.92
2022-11-28T22:44:24.488Z,18.30
2022-11-28T22:49:27.380Z,17.70
2022-11-28T22:54:28.966Z,18.50
2022-11-28T22:59:33.633Z,20.02
2022-11-28T23:04:35.380Z,18.63
2022-11-28T23:09:38.061Z,19.45
2022-11-28T23:14:42.330Z,19.17
2022-11-28T23:19:44.406Z,19.38
2022-11-28T23:24:46.114Z,18.67
2022-11-28T23:29:47.997Z,18.83
2022-11-28T23:34:49.587Z,18.73
2022-11-28T23:39:51.253Z,18.58
2022-11-28T23:44:52.901Z,18.83
2022-11-28T23:49:54.481Z,19.52
2022-11-28T23:54:56.150Z,17.73
